sensor_id;sensor_type;location;lat;lon;timestamp;temperature;humidity
26964;DHT22;14521;48.148;-1.656;2022-09-09T00:02:01;23.20;94.20
26964;DHT22;14521;48.148;-1.656;2022-09-09T00:09:04;23.20;94.10
26964;DHT22;14521;48.148;-1.656;2022-09-09T00:12:54;23.20;94.10
26964;DHT22;14521;48.148;-1.656;2022-09-09T00:19:59;23.20;94.10
26964;DHT22;14521;48.148;-1.656;2022-09-09T00:23:29;23.20;94.00
26964;DHT22;14521;48.148;-1.656;2022-09-09T00:26:57;23.20;94.00
26964;DHT22;14521;48.148;-1.656;2022-09-09T00:30:34;23.20;94.00
26964;DHT22;14521;48.148;-1.656;2022-09-09T00:34:17;23.20;94.10
26964;DHT22;14521;48.148;-1.656;2022-09-09T00:37:41;23.20;94.00
26964;DHT22;14521;48.148;-1.656;2022-09-09T00:41:34;23.20;94.00
26964;DHT22;14521;48.148;-1.656;2022-09-09T00:52:32;23.10;94.00
26964;DHT22;14521;48.148;-1.656;2022-09-09T00:56:14;23.20;94.10
26964;DHT22;14521;48.148;-1.656;2022-09-09T00:59:55;23.20;94.00
26964;DHT22;14521;48.148;-1.656;2022-09-09T01:03:20;23.10;94.00
26964;DHT22;14521;48.148;-1.656;2022-09-09T01:06:49;23.10;94.00
26964;DHT22;14521;48.148;-1.656;2022-09-09T01:18:12;23.10;94.00
26964;DHT22;14521;48.148;-1.656;2022-09-09T01:25:16;23.10;94.00
26964;DHT22;14521;48.148;-1.656;2022-09-09T01:28:51;23.10;94.40
26964;DHT22;14521;48.148;-1.656;2022-09-09T01:32:50;23.10;94.00
26964;DHT22;14521;48.148;-1.656;2022-09-09T01:36:21;23.10;94.00
26964;DHT22;14521;48.148;-1.656;2022-09-09T01:39:47;23.10;93.90
26964;DHT22;14521;48.148;-1.656;2022-09-09T01:43:11;23.10;93.80
26964;DHT22;14521;48.148;-1.656;2022-09-09T01:46:34;23.10;93.90
26964;DHT22;14521;48.148;-1.656;2022-09-09T01:49:58;23.10;94.00
26964;DHT22;14521;48.148;-1.656;2022-09-09T01:53:23;23.10;93.70
26964;DHT22;14521;48.148;-1.656;2022-09-09T02:00:14;23.10;93.70
26964;DHT22;14521;48.148;-1.656;2022-09-09T02:03:38;23.10;93.80
26964;DHT22;14521;48.148;-1.656;2022-09-09T02:14:47;23.10;93.50
26964;DHT22;14521;48.148;-1.656;2022-09-09T02:18:12;23.10;93.50
26964;DHT22;14521;48.148;-1.656;2022-09-09T02:21:37;23.10;93.50
26964;DHT22;14521;48.148;-1.656;2022-09-09T02:25:00;23.10;93.60
26964;DHT22;14521;48.148;-1.656;2022-09-09T02:28:27;23.10;93.90
26964;DHT22;14521;48.148;-1.656;2022-09-09T02:31:51;23.10;93.60
26964;DHT22;14521;48.148;-1.656;2022-09-09T02:35:21;23.10;93.60
26964;DHT22;14521;48.148;-1.656;2022-09-09T02:38:47;23.10;93.40
26964;DHT22;14521;48.148;-1.656;2022-09-09T02:42:19;23.10;93.60
26964;DHT22;14521;48.148;-1.656;2022-09-09T02:45:53;23.10;93.60
26964;DHT22;14521;48.148;-1.656;2022-09-09T02:56:30;23.10;94.00
26964;DHT22;14521;48.148;-1.656;2022-09-09T03:00:00;23.10;94.00
26964;DHT22;14521;48.148;-1.656;2022-09-09T03:03:25;23.10;93.90
26964;DHT22;14521;48.148;-1.656;2022-09-09T03:06:48;23.10;94.00
26964;DHT22;14521;48.148;-1.656;2022-09-09T03:10:14;23.10;94.00
26964;DHT22;14521;48.148;-1.656;2022-09-09T03:13:36;23.10;93.90
26964;DHT22;14521;48.148;-1.656;2022-09-09T03:17:00;23.10;93.90
26964;DHT22;14521;48.148;-1.656;2022-09-09T03:20:30;23.10;93.90
26964;DHT22;14521;48.148;-1.656;2022-09-09T03:23:53;23.10;93.90
26964;DHT22;14521;48.148;-1.656;2022-09-09T03:27:15;23.10;94.00
26964;DHT22;14521;48.148;-1.656;2022-09-09T03:30:37;23.10;94.00
26964;DHT22;14521;48.148;-1.656;2022-09-09T03:34:00;23.00;94.00
26964;DHT22;14521;48.148;-1.656;2022-09-09T03:37:25;23.00;93.90
26964;DHT22;14521;48.148;-1.656;2022-09-09T03:40:52;23.10;93.90
26964;DHT22;14521;48.148;-1.656;2022-09-09T03:44:20;23.10;93.90
26964;DHT22;14521;48.148;-1.656;2022-09-09T03:47:42;23.10;93.90
26964;DHT22;14521;48.148;-1.656;2022-09-09T03:51:05;23.00;93.90
26964;DHT22;14521;48.148;-1.656;2022-09-09T03:54:28;23.10;93.80
26964;DHT22;14521;48.148;-1.656;2022-09-09T03:57:51;23.10;93.90
26964;DHT22;14521;48.148;-1.656;2022-09-09T04:01:15;23.00;93.80
26964;DHT22;14521;48.148;-1.656;2022-09-09T04:04:40;23.00;93.80
26964;DHT22;14521;48.148;-1.656;2022-09-09T04:08:02;23.10;93.80
26964;DHT22;14521;48.148;-1.656;2022-09-09T04:11:25;23.00;93.80
26964;DHT22;14521;48.148;-1.656;2022-09-09T04:14:49;23.10;93.80
26964;DHT22;14521;48.148;-1.656;2022-09-09T04:18:12;23.00;93.70
26964;DHT22;14521;48.148;-1.656;2022-09-09T04:21:41;23.10;93.80
26964;DHT22;14521;48.148;-1.656;2022-09-09T04:25:03;23.00;93.80
26964;DHT22;14521;48.148;-1.656;2022-09-09T04:28:28;23.10;93.90
26964;DHT22;14521;48.148;-1.656;2022-09-09T04:31:50;23.00;93.80
26964;DHT22;14521;48.148;-1.656;2022-09-09T04:35:14;23.00;93.80
26964;DHT22;14521;48.148;-1.656;2022-09-09T04:38:36;23.00;93.70
26964;DHT22;14521;48.148;-1.656;2022-09-09T04:41:59;23.00;93.70
26964;DHT22;14521;48.148;-1.656;2022-09-09T04:45:21;23.00;93.80
26964;DHT22;14521;48.148;-1.656;2022-09-09T04:48:44;23.00;93.60
26964;DHT22;14521;48.148;-1.656;2022-09-09T04:52:07;23.00;93.80
26964;DHT22;14521;48.148;-1.656;2022-09-09T04:55:31;23.00;93.90
26964;DHT22;14521;48.148;-1.656;2022-09-09T04:58:54;23.00;93.70
26964;DHT22;14521;48.148;-1.656;2022-09-09T05:02:22;23.00;93.70
26964;DHT22;14521;48.148;-1.656;2022-09-09T05:05:45;23.00;93.70
26964;DHT22;14521;48.148;-1.656;2022-09-09T05:09:08;23.00;93.80
26964;DHT22;14521;48.148;-1.656;2022-09-09T05:12:32;23.00;93.70
26964;DHT22;14521;48.148;-1.656;2022-09-09T05:15:55;23.00;93.70
26964;DHT22;14521;48.148;-1.656;2022-09-09T05:19:17;23.00;93.70
26964;DHT22;14521;48.148;-1.656;2022-09-09T05:22:43;23.00;93.50
26964;DHT22;14521;48.148;-1.656;2022-09-09T05:26:06;23.00;93.50
26964;DHT22;14521;48.148;-1.656;2022-09-09T05:29:29;22.90;93.70
26964;DHT22;14521;48.148;-1.656;2022-09-09T05:32:57;22.90;93.80
26964;DHT22;14521;48.148;-1.656;2022-09-09T05:36:21;22.90;93.80
26964;DHT22;14521;48.148;-1.656;2022-09-09T05:39:48;22.90;93.70
26964;DHT22;14521;48.148;-1.656;2022-09-09T05:43:11;22.90;93.80
26964;DHT22;14521;48.148;-1.656;2022-09-09T05:46:35;23.00;94.00
26964;DHT22;14521;48.148;-1.656;2022-09-09T05:49:58;23.00;93.90
26964;DHT22;14521;48.148;-1.656;2022-09-09T05:53:21;23.00;93.90
26964;DHT22;14521;48.148;-1.656;2022-09-09T05:56:43;23.00;94.00
26964;DHT22;14521;48.148;-1.656;2022-09-09T06:00:12;23.10;94.00
26964;DHT22;14521;48.148;-1.656;2022-09-09T06:03:41;23.00;94.00
26964;DHT22;14521;48.148;-1.656;2022-09-09T06:07:05;23.10;94.00
26964;DHT22;14521;48.148;-1.656;2022-09-09T06:10:27;23.10;94.00
26964;DHT22;14521;48.148;-1.656;2022-09-09T06:13:50;23.10;93.60
26964;DHT22;14521;48.148;-1.656;2022-09-09T06:17:16;22.80;93.00
26964;DHT22;14521;48.148;-1.656;2022-09-09T06:20:38;22.60;92.60
26964;DHT22;14521;48.148;-1.656;2022-09-09T06:24:01;22.30;93.20
26964;DHT22;14521;48.148;-1.656;2022-09-09T06:27:23;22.10;93.60
26964;DHT22;14521;48.148;-1.656;2022-09-09T06:30:46;22.10;93.80
26964;DHT22;14521;48.148;-1.656;2022-09-09T06:34:09;22.00;94.50
26964;DHT22;14521;48.148;-1.656;2022-09-09T06:37:35;22.10;94.30
26964;DHT22;14521;48.148;-1.656;2022-09-09T06:40:59;22.30;93.60
26964;DHT22;14521;48.148;-1.656;2022-09-09T06:44:23;22.50;93.50
26964;DHT22;14521;48.148;-1.656;2022-09-09T06:47:45;22.50;93.30
26964;DHT22;14521;48.148;-1.656;2022-09-09T06:51:10;22.50;93.30
26964;DHT22;14521;48.148;-1.656;2022-09-09T06:54:36;22.30;93.30
26964;DHT22;14521;48.148;-1.656;2022-09-09T06:58:00;22.10;93.60
26964;DHT22;14521;48.148;-1.656;2022-09-09T07:01:27;22.00;93.70
26964;DHT22;14521;48.148;-1.656;2022-09-09T07:04:52;22.00;93.90
26964;DHT22;14521;48.148;-1.656;2022-09-09T07:08:14;22.00;93.90
26964;DHT22;14521;48.148;-1.656;2022-09-09T07:11:45;22.00;93.90
26964;DHT22;14521;48.148;-1.656;2022-09-09T07:15:09;22.10;93.80
26964;DHT22;14521;48.148;-1.656;2022-09-09T07:18:36;22.10;94.00
26964;DHT22;14521;48.148;-1.656;2022-09-09T07:21:58;22.00;94.00
26964;DHT22;14521;48.148;-1.656;2022-09-09T07:25:21;21.90;94.30
26964;DHT22;14521;48.148;-1.656;2022-09-09T07:28:44;21.80;94.60
26964;DHT22;14521;48.148;-1.656;2022-09-09T07:32:06;21.60;94.90
26964;DHT22;14521;48.148;-1.656;2022-09-09T07:35:31;21.60;94.90
26964;DHT22;14521;48.148;-1.656;2022-09-09T07:38:57;21.60;95.10
26964;DHT22;14521;48.148;-1.656;2022-09-09T07:42:20;21.60;95.10
26964;DHT22;14521;48.148;-1.656;2022-09-09T07:45:43;21.50;95.30
26964;DHT22;14521;48.148;-1.656;2022-09-09T07:49:06;21.40;95.60
26964;DHT22;14521;48.148;-1.656;2022-09-09T07:52:29;21.30;95.80
26964;DHT22;14521;48.148;-1.656;2022-09-09T07:55:55;21.30;96.20
26964;DHT22;14521;48.148;-1.656;2022-09-09T07:59:18;21.30;95.90
26964;DHT22;14521;48.148;-1.656;2022-09-09T08:02:43;21.30;95.80
26964;DHT22;14521;48.148;-1.656;2022-09-09T08:06:08;21.40;95.60
26964;DHT22;14521;48.148;-1.656;2022-09-09T08:09:30;21.40;95.40
26964;DHT22;14521;48.148;-1.656;2022-09-09T08:13:14;21.50;95.70
26964;DHT22;14521;48.148;-1.656;2022-09-09T08:16:44;21.80;95.10
26964;DHT22;14521;48.148;-1.656;2022-09-09T08:20:09;22.10;94.30
26964;DHT22;14521;48.148;-1.656;2022-09-09T08:23:32;22.20;93.90
26964;DHT22;14521;48.148;-1.656;2022-09-09T08:26:56;22.30;93.70
26964;DHT22;14521;48.148;-1.656;2022-09-09T08:30:19;22.40;93.70
26964;DHT22;14521;48.148;-1.656;2022-09-09T08:33:43;22.40;93.60
26964;DHT22;14521;48.148;-1.656;2022-09-09T08:37:07;22.40;93.60
26964;DHT22;14521;48.148;-1.656;2022-09-09T08:40:40;22.40;93.50
26964;DHT22;14521;48.148;-1.656;2022-09-09T08:51:32;22.40;93.50
26964;DHT22;14521;48.148;-1.656;2022-09-09T08:55:02;22.50;93.90
26964;DHT22;14521;48.148;-1.656;2022-09-09T08:58:27;22.50;93.40
26964;DHT22;14521;48.148;-1.656;2022-09-09T09:09:50;22.70;93.20
26964;DHT22;14521;48.148;-1.656;2022-09-09T09:13:21;22.70;93.10
26964;DHT22;14521;48.148;-1.656;2022-09-09T09:20:46;22.70;93.00
26964;DHT22;14521;48.148;-1.656;2022-09-09T09:24:14;22.70;93.00
26964;DHT22;14521;48.148;-1.656;2022-09-09T09:31:15;22.70;93.10
26964;DHT22;14521;48.148;-1.656;2022-09-09T09:34:41;22.70;93.10
26964;DHT22;14521;48.148;-1.656;2022-09-09T09:38:23;22.70;93.10
26964;DHT22;14521;48.148;-1.656;2022-09-09T09:42:14;22.80;93.10
26964;DHT22;14521;48.148;-1.656;2022-09-09T09:45:44;22.80;92.90
26964;DHT22;14521;48.148;-1.656;2022-09-09T09:49:27;22.90;92.90
26964;DHT22;14521;48.148;-1.656;2022-09-09T09:52:57;23.00;92.70
26964;DHT22;14521;48.148;-1.656;2022-09-09T09:56:28;23.10;92.80
26964;DHT22;14521;48.148;-1.656;2022-09-09T10:03:35;23.10;92.60
26964;DHT22;14521;48.148;-1.656;2022-09-09T10:07:09;23.10;92.60
26964;DHT22;14521;48.148;-1.656;2022-09-09T10:10:50;23.10;92.60
26964;DHT22;14521;48.148;-1.656;2022-09-09T10:14:20;23.10;92.60
26964;DHT22;14521;48.148;-1.656;2022-09-09T10:21:51;23.20;92.60
26964;DHT22;14521;48.148;-1.656;2022-09-09T10:36:28;23.20;92.60
26964;DHT22;14521;48.148;-1.656;2022-09-09T10:40:30;23.20;92.60
26964;DHT22;14521;48.148;-1.656;2022-09-09T10:54:47;23.20;92.60
26964;DHT22;14521;48.148;-1.656;2022-09-09T10:58:40;23.10;92.60
26964;DHT22;14521;48.148;-1.656;2022-09-09T11:05:52;23.10;92.70
26964;DHT22;14521;48.148;-1.656;2022-09-09T11:09:19;23.10;92.70
26964;DHT22;14521;48.148;-1.656;2022-09-09T11:12:45;23.10;92.80
26964;DHT22;14521;48.148;-1.656;2022-09-09T11:16:26;23.20;92.80
26964;DHT22;14521;48.148;-1.656;2022-09-09T11:19:51;23.20;92.70
26964;DHT22;14521;48.148;-1.656;2022-09-09T11:23:17;23.20;92.70
26964;DHT22;14521;48.148;-1.656;2022-09-09T11:26:58;23.20;92.70
26964;DHT22;14521;48.148;-1.656;2022-09-09T11:41:36;23.20;92.70
26964;DHT22;14521;48.148;-1.656;2022-09-09T11:45:10;23.20;92.60
26964;DHT22;14521;48.148;-1.656;2022-09-09T11:48:37;23.20;92.50
26964;DHT22;14521;48.148;-1.656;2022-09-09T11:52:20;23.20;92.60
26964;DHT22;14521;48.148;-1.656;2022-09-09T11:55:43;23.20;92.60
26964;DHT22;14521;48.148;-1.656;2022-09-09T11:59:21;23.20;92.50
26964;DHT22;14521;48.148;-1.656;2022-09-09T12:02:48;23.20;92.50
26964;DHT22;14521;48.148;-1.656;2022-09-09T12:06:25;23.20;92.40
26964;DHT22;14521;48.148;-1.656;2022-09-09T12:13:29;23.30;92.20
26964;DHT22;14521;48.148;-1.656;2022-09-09T12:16:53;23.20;92.20
26964;DHT22;14521;48.148;-1.656;2022-09-09T12:23:52;23.30;92.10
26964;DHT22;14521;48.148;-1.656;2022-09-09T12:27:31;23.30;92.10
26964;DHT22;14521;48.148;-1.656;2022-09-09T12:34:42;23.30;92.10
26964;DHT22;14521;48.148;-1.656;2022-09-09T12:38:06;23.40;92.10
26964;DHT22;14521;48.148;-1.656;2022-09-09T12:41:33;23.40;92.10
26964;DHT22;14521;48.148;-1.656;2022-09-09T12:44:58;23.40;92.00
26964;DHT22;14521;48.148;-1.656;2022-09-09T12:48:20;23.40;92.10
26964;DHT22;14521;48.148;-1.656;2022-09-09T12:51:43;23.40;92.00
26964;DHT22;14521;48.148;-1.656;2022-09-09T12:55:06;23.40;92.00
26964;DHT22;14521;48.148;-1.656;2022-09-09T12:58:31;23.40;92.00
26964;DHT22;14521;48.148;-1.656;2022-09-09T13:01:58;23.40;92.00
26964;DHT22;14521;48.148;-1.656;2022-09-09T13:08:54;23.40;91.90
26964;DHT22;14521;48.148;-1.656;2022-09-09T13:12:19;23.40;91.80
26964;DHT22;14521;48.148;-1.656;2022-09-09T13:16:19;23.40;91.90
26964;DHT22;14521;48.148;-1.656;2022-09-09T13:19:44;23.40;92.00
26964;DHT22;14521;48.148;-1.656;2022-09-09T13:23:11;23.40;92.10
26964;DHT22;14521;48.148;-1.656;2022-09-09T13:26:34;23.40;92.10
26964;DHT22;14521;48.148;-1.656;2022-09-09T13:29:56;23.40;92.00
26964;DHT22;14521;48.148;-1.656;2022-09-09T13:33:22;23.40;92.00
26964;DHT22;14521;48.148;-1.656;2022-09-09T13:36:47;23.40;91.90
26964;DHT22;14521;48.148;-1.656;2022-09-09T13:40:18;23.40;92.00
26964;DHT22;14521;48.148;-1.656;2022-09-09T13:43:45;23.40;92.10
26964;DHT22;14521;48.148;-1.656;2022-09-09T13:47:18;23.40;92.20
26964;DHT22;14521;48.148;-1.656;2022-09-09T13:50:41;23.40;92.40
26964;DHT22;14521;48.148;-1.656;2022-09-09T13:54:09;23.40;92.40
26964;DHT22;14521;48.148;-1.656;2022-09-09T13:57:32;23.40;92.60
26964;DHT22;14521;48.148;-1.656;2022-09-09T14:00:54;23.40;92.90
26964;DHT22;14521;48.148;-1.656;2022-09-09T14:04:17;23.30;92.80
26964;DHT22;14521;48.148;-1.656;2022-09-09T14:07:39;23.30;93.50
26964;DHT22;14521;48.148;-1.656;2022-09-09T14:11:05;23.30;93.40
26964;DHT22;14521;48.148;-1.656;2022-09-09T14:14:29;23.30;93.20
26964;DHT22;14521;48.148;-1.656;2022-09-09T14:17:52;23.40;93.30
26964;DHT22;14521;48.148;-1.656;2022-09-09T14:21:14;23.40;93.40
26964;DHT22;14521;48.148;-1.656;2022-09-09T14:24:37;23.40;93.40
26964;DHT22;14521;48.148;-1.656;2022-09-09T14:28:00;23.40;93.40
26964;DHT22;14521;48.148;-1.656;2022-09-09T14:31:24;23.40;93.40
26964;DHT22;14521;48.148;-1.656;2022-09-09T14:34:47;23.50;93.40
26964;DHT22;14521;48.148;-1.656;2022-09-09T14:38:11;23.40;93.40
26964;DHT22;14521;48.148;-1.656;2022-09-09T14:41:40;23.40;93.80
26964;DHT22;14521;48.148;-1.656;2022-09-09T14:45:02;23.40;93.50
26964;DHT22;14521;48.148;-1.656;2022-09-09T14:48:25;23.40;93.50
26964;DHT22;14521;48.148;-1.656;2022-09-09T14:51:47;23.40;93.60
26964;DHT22;14521;48.148;-1.656;2022-09-09T14:55:10;23.50;93.60
26964;DHT22;14521;48.148;-1.656;2022-09-09T14:58:33;23.40;93.60
26964;DHT22;14521;48.148;-1.656;2022-09-09T15:01:55;23.40;93.60
26964;DHT22;14521;48.148;-1.656;2022-09-09T15:05:17;23.40;93.50
26964;DHT22;14521;48.148;-1.656;2022-09-09T15:08:42;23.50;93.60
26964;DHT22;14521;48.148;-1.656;2022-09-09T15:12:05;23.40;93.60
26964;DHT22;14521;48.148;-1.656;2022-09-09T15:15:28;23.40;93.60
26964;DHT22;14521;48.148;-1.656;2022-09-09T15:18:52;23.40;93.50
26964;DHT22;14521;48.148;-1.656;2022-09-09T15:22:15;23.50;93.50
26964;DHT22;14521;48.148;-1.656;2022-09-09T15:25:37;23.50;93.50
26964;DHT22;14521;48.148;-1.656;2022-09-09T15:28:59;23.50;93.70
26964;DHT22;14521;48.148;-1.656;2022-09-09T15:32:22;23.50;94.10
26964;DHT22;14521;48.148;-1.656;2022-09-09T15:35:44;23.50;93.70
26964;DHT22;14521;48.148;-1.656;2022-09-09T15:39:08;23.40;93.70
26964;DHT22;14521;48.148;-1.656;2022-09-09T15:42:34;23.50;93.70
26964;DHT22;14521;48.148;-1.656;2022-09-09T15:46:00;23.40;93.70
26964;DHT22;14521;48.148;-1.656;2022-09-09T15:49:27;23.50;93.70
26964;DHT22;14521;48.148;-1.656;2022-09-09T15:52:49;23.50;93.70
26964;DHT22;14521;48.148;-1.656;2022-09-09T15:56:11;23.50;93.70
26964;DHT22;14521;48.148;-1.656;2022-09-09T15:59:34;23.50;93.90
26964;DHT22;14521;48.148;-1.656;2022-09-09T16:02:56;23.50;93.90
26964;DHT22;14521;48.148;-1.656;2022-09-09T16:06:20;23.50;93.80
26964;DHT22;14521;48.148;-1.656;2022-09-09T16:09:43;23.50;93.90
26964;DHT22;14521;48.148;-1.656;2022-09-09T16:13:05;23.60;94.00
26964;DHT22;14521;48.148;-1.656;2022-09-09T16:16:29;23.60;94.10
26964;DHT22;14521;48.148;-1.656;2022-09-09T16:19:51;23.60;94.00
26964;DHT22;14521;48.148;-1.656;2022-09-09T16:23:16;23.60;94.00
26964;DHT22;14521;48.148;-1.656;2022-09-09T16:26:42;23.60;94.10
26964;DHT22;14521;48.148;-1.656;2022-09-09T16:30:07;23.60;94.30
26964;DHT22;14521;48.148;-1.656;2022-09-09T16:33:29;23.60;94.30
26964;DHT22;14521;48.148;-1.656;2022-09-09T16:36:52;23.60;94.20
26964;DHT22;14521;48.148;-1.656;2022-09-09T16:40:15;23.60;94.50
26964;DHT22;14521;48.148;-1.656;2022-09-09T16:43:39;23.60;94.40
26964;DHT22;14521;48.148;-1.656;2022-09-09T16:47:02;23.60;93.80
26964;DHT22;14521;48.148;-1.656;2022-09-09T16:50:25;23.60;94.70
26964;DHT22;14521;48.148;-1.656;2022-09-09T16:53:48;23.60;94.00
26964;DHT22;14521;48.148;-1.656;2022-09-09T16:57:10;23.60;94.30
26964;DHT22;14521;48.148;-1.656;2022-09-09T17:00:32;23.70;94.70
26964;DHT22;14521;48.148;-1.656;2022-09-09T17:03:57;23.60;94.10
26964;DHT22;14521;48.148;-1.656;2022-09-09T17:07:22;23.60;95.10
26964;DHT22;14521;48.148;-1.656;2022-09-09T17:10:44;23.70;95.30
26964;DHT22;14521;48.148;-1.656;2022-09-09T17:14:10;23.60;95.70
26964;DHT22;14521;48.148;-1.656;2022-09-09T17:17:33;23.70;95.30
26964;DHT22;14521;48.148;-1.656;2022-09-09T17:20:55;23.50;92.80
26964;DHT22;14521;48.148;-1.656;2022-09-09T17:24:17;23.40;92.80
26964;DHT22;14521;48.148;-1.656;2022-09-09T17:27:40;23.20;92.90
26964;DHT22;14521;48.148;-1.656;2022-09-09T17:31:04;23.20;92.60
26964;DHT22;14521;48.148;-1.656;2022-09-09T17:34:28;23.10;91.90
26964;DHT22;14521;48.148;-1.656;2022-09-09T17:37:52;23.10;91.20
26964;DHT22;14521;48.148;-1.656;2022-09-09T17:41:17;22.90;91.70
26964;DHT22;14521;48.148;-1.656;2022-09-09T17:44:40;22.90;91.30
26964;DHT22;14521;48.148;-1.656;2022-09-09T17:48:03;22.80;90.10
26964;DHT22;14521;48.148;-1.656;2022-09-09T17:51:28;22.90;91.40
26964;DHT22;14521;48.148;-1.656;2022-09-09T17:54:51;23.10;91.90
26964;DHT22;14521;48.148;-1.656;2022-09-09T17:58:15;23.20;91.70
26964;DHT22;14521;48.148;-1.656;2022-09-09T18:01:40;23.30;90.60
26964;DHT22;14521;48.148;-1.656;2022-09-09T18:05:03;23.10;88.50
26964;DHT22;14521;48.148;-1.656;2022-09-09T18:08:25;22.90;89.30
26964;DHT22;14521;48.148;-1.656;2022-09-09T18:11:49;22.80;89.80
26964;DHT22;14521;48.148;-1.656;2022-09-09T18:15:12;22.80;90.10
26964;DHT22;14521;48.148;-1.656;2022-09-09T18:18:39;22.80;90.50
26964;DHT22;14521;48.148;-1.656;2022-09-09T18:22:03;22.70;90.80
26964;DHT22;14521;48.148;-1.656;2022-09-09T18:25:26;22.70;91.00
26964;DHT22;14521;48.148;-1.656;2022-09-09T18:28:51;22.60;91.30
26964;DHT22;14521;48.148;-1.656;2022-09-09T18:32:14;22.60;91.40
26964;DHT22;14521;48.148;-1.656;2022-09-09T18:35:37;22.60;91.50
26964;DHT22;14521;48.148;-1.656;2022-09-09T18:39:01;22.60;91.70
26964;DHT22;14521;48.148;-1.656;2022-09-09T18:42:24;22.60;91.50
26964;DHT22;14521;48.148;-1.656;2022-09-09T18:45:47;22.50;91.90
26964;DHT22;14521;48.148;-1.656;2022-09-09T18:49:11;22.50;92.00
26964;DHT22;14521;48.148;-1.656;2022-09-09T18:52:33;22.50;92.20
26964;DHT22;14521;48.148;-1.656;2022-09-09T18:56:00;22.50;92.30
26964;DHT22;14521;48.148;-1.656;2022-09-09T18:59:24;22.40;92.20
26964;DHT22;14521;48.148;-1.656;2022-09-09T19:02:48;22.40;92.30
26964;DHT22;14521;48.148;-1.656;2022-09-09T19:06:17;22.40;92.30
26964;DHT22;14521;48.148;-1.656;2022-09-09T19:09:39;22.40;92.30
26964;DHT22;14521;48.148;-1.656;2022-09-09T19:13:02;22.30;92.20
26964;DHT22;14521;48.148;-1.656;2022-09-09T19:16:28;22.30;92.50
26964;DHT22;14521;48.148;-1.656;2022-09-09T19:19:51;22.40;92.40
26964;DHT22;14521;48.148;-1.656;2022-09-09T19:23:13;22.40;92.40
26964;DHT22;14521;48.148;-1.656;2022-09-09T19:26:38;22.30;92.50
26964;DHT22;14521;48.148;-1.656;2022-09-09T19:30:02;22.30;92.60
26964;DHT22;14521;48.148;-1.656;2022-09-09T19:33:26;22.20;92.60
26964;DHT22;14521;48.148;-1.656;2022-09-09T19:36:48;22.30;92.80
26964;DHT22;14521;48.148;-1.656;2022-09-09T19:40:12;22.20;93.10
26964;DHT22;14521;48.148;-1.656;2022-09-09T19:43:35;22.10;93.30
26964;DHT22;14521;48.148;-1.656;2022-09-09T19:46:57;22.10;93.50
26964;DHT22;14521;48.148;-1.656;2022-09-09T19:50:21;22.10;93.80
26964;DHT22;14521;48.148;-1.656;2022-09-09T19:53:46;22.10;93.70
26964;DHT22;14521;48.148;-1.656;2022-09-09T19:57:12;22.00;94.10
26964;DHT22;14521;48.148;-1.656;2022-09-09T20:00:34;22.00;94.20
26964;DHT22;14521;48.148;-1.656;2022-09-09T20:04:03;22.10;94.20
26964;DHT22;14521;48.148;-1.656;2022-09-09T20:07:25;22.00;94.30
26964;DHT22;14521;48.148;-1.656;2022-09-09T20:10:52;22.00;94.50
26964;DHT22;14521;48.148;-1.656;2022-09-09T20:14:15;22.00;94.40
26964;DHT22;14521;48.148;-1.656;2022-09-09T20:17:38;21.90;94.60
26964;DHT22;14521;48.148;-1.656;2022-09-09T20:21:11;21.90;94.70
26964;DHT22;14521;48.148;-1.656;2022-09-09T20:24:34;21.90;94.70
26964;DHT22;14521;48.148;-1.656;2022-09-09T20:27:57;21.90;94.80
26964;DHT22;14521;48.148;-1.656;2022-09-09T20:31:22;21.90;94.80
26964;DHT22;14521;48.148;-1.656;2022-09-09T20:34:46;21.80;94.80
26964;DHT22;14521;48.148;-1.656;2022-09-09T20:38:09;21.80;94.90
26964;DHT22;14521;48.148;-1.656;2022-09-09T20:41:33;21.80;95.10
26964;DHT22;14521;48.148;-1.656;2022-09-09T20:44:56;21.60;95.20
26964;DHT22;14521;48.148;-1.656;2022-09-09T20:48:18;21.60;95.30
26964;DHT22;14521;48.148;-1.656;2022-09-09T20:51:40;21.60;95.40
26964;DHT22;14521;48.148;-1.656;2022-09-09T20:55:03;21.60;95.60
26964;DHT22;14521;48.148;-1.656;2022-09-09T20:58:29;21.50;95.50
26964;DHT22;14521;48.148;-1.656;2022-09-09T21:01:54;21.40;95.70
26964;DHT22;14521;48.148;-1.656;2022-09-09T21:05:18;21.40;95.90
26964;DHT22;14521;48.148;-1.656;2022-09-09T21:08:45;21.30;96.10
26964;DHT22;14521;48.148;-1.656;2022-09-09T21:12:08;21.30;96.00
26964;DHT22;14521;48.148;-1.656;2022-09-09T21:15:30;21.10;96.40
26964;DHT22;14521;48.148;-1.656;2022-09-09T21:18:52;21.30;96.60
26964;DHT22;14521;48.148;-1.656;2022-09-09T21:22:15;21.80;95.90
26964;DHT22;14521;48.148;-1.656;2022-09-09T21:25:38;22.10;94.90
26964;DHT22;14521;48.148;-1.656;2022-09-09T21:29:00;22.20;94.80
26964;DHT22;14521;48.148;-1.656;2022-09-09T21:32:22;22.40;94.40
26964;DHT22;14521;48.148;-1.656;2022-09-09T21:35:45;22.80;93.70
26964;DHT22;14521;48.148;-1.656;2022-09-09T21:39:07;22.90;93.50
26964;DHT22;14521;48.148;-1.656;2022-09-09T21:42:29;22.90;93.30
26964;DHT22;14521;48.148;-1.656;2022-09-09T21:45:52;22.80;93.40
26964;DHT22;14521;48.148;-1.656;2022-09-09T21:49:14;22.80;93.60
26964;DHT22;14521;48.148;-1.656;2022-09-09T21:52:36;22.80;93.70
26964;DHT22;14521;48.148;-1.656;2022-09-09T21:56:05;22.80;93.70
26964;DHT22;14521;48.148;-1.656;2022-09-09T21:59:28;22.80;93.80
26964;DHT22;14521;48.148;-1.656;2022-09-09T22:02:50;22.80;93.80
26964;DHT22;14521;48.148;-1.656;2022-09-09T22:06:14;22.80;93.80
26964;DHT22;14521;48.148;-1.656;2022-09-09T22:09:37;22.80;93.90
26964;DHT22;14521;48.148;-1.656;2022-09-09T22:12:59;22.80;93.90
26964;DHT22;14521;48.148;-1.656;2022-09-09T22:16:22;22.80;93.90
26964;DHT22;14521;48.148;-1.656;2022-09-09T22:19:45;22.80;93.90
26964;DHT22;14521;48.148;-1.656;2022-09-09T22:23:09;22.80;93.80
26964;DHT22;14521;48.148;-1.656;2022-09-09T22:26:34;22.80;93.90
26964;DHT22;14521;48.148;-1.656;2022-09-09T22:29:57;22.80;93.90
26964;DHT22;14521;48.148;-1.656;2022-09-09T22:33:19;22.90;93.90
26964;DHT22;14521;48.148;-1.656;2022-09-09T22:36:42;22.90;93.90
26964;DHT22;14521;48.148;-1.656;2022-09-09T22:40:04;22.90;93.90
26964;DHT22;14521;48.148;-1.656;2022-09-09T22:43:28;22.90;93.80
26964;DHT22;14521;48.148;-1.656;2022-09-09T22:46:50;22.80;93.80
26964;DHT22;14521;48.148;-1.656;2022-09-09T22:50:13;22.90;93.80
26964;DHT22;14521;48.148;-1.656;2022-09-09T22:53:35;22.90;93.80
26964;DHT22;14521;48.148;-1.656;2022-09-09T22:56:58;22.90;94.00
26964;DHT22;14521;48.148;-1.656;2022-09-09T23:00:21;22.80;94.00
26964;DHT22;14521;48.148;-1.656;2022-09-09T23:03:44;22.80;94.00
26964;DHT22;14521;48.148;-1.656;2022-09-09T23:07:09;22.80;94.00
26964;DHT22;14521;48.148;-1.656;2022-09-09T23:10:32;22.80;94.00
26964;DHT22;14521;48.148;-1.656;2022-09-09T23:13:55;22.80;94.00
26964;DHT22;14521;48.148;-1.656;2022-09-09T23:17:19;22.80;94.00
26964;DHT22;14521;48.148;-1.656;2022-09-09T23:20:41;22.80;94.40
26964;DHT22;14521;48.148;-1.656;2022-09-09T23:24:05;22.80;94.20